Time;durP1;ratioP1;P1;durP2;ratioP2;P2;SDS_P1;SDS_P2;PMS_P1;PMS_P2;Temp;Humidity;BMP_temperature;BMP_pressure;BME280_temperature;BME280_humidity;BME280_pressure;Samples;Min_cycle;Max_cycle;Signal;HPM_P1;HPM_P2
2023/06/15 00:00:24;;;;;;;4.53;1.35;;;;;;;;;;5050848;28;20633;-59
2023/06/15 00:02:51;;;;;;;2.40;1.42;;;;;;;;;;5051014;28;20351;-59
2023/06/15 00:05:18;;;;;;;1.13;1.13;;;;;;;;;;5049944;28;20757;-59
2023/06/15 00:07:47;;;;;;;1.30;1.30;;;;;;;;;;5050689;28;20207;-59
2023/06/15 00:10:14;;;;;;;1.27;1.17;;;;;;;;;;5049859;28;20290;-59
2023/06/15 00:12:41;;;;;;;1.40;1.40;;;;;;;;;;5050062;28;20215;-59
2023/06/15 00:15:08;;;;;;;1.45;1.33;;;;;;;;;;5049091;28;20215;-59
2023/06/15 00:17:37;;;;;;;1.38;1.38;;;;;;;;;;5064353;28;20203;-60
2023/06/15 00:20:09;;;;;;;1.27;1.25;;;;;;;;;;5069497;28;20233;-60
2023/06/15 00:22:38;;;;;;;3.50;1.42;;;;;;;;;;5052613;28;20661;-59
2023/06/15 00:25:07;;;;;;;1.15;1.15;;;;;;;;;;5061338;28;20922;-60
2023/06/15 00:27:34;;;;;;;1.40;1.40;;;;;;;;;;5069639;28;20215;-59
2023/06/15 00:30:01;;;;;;;1.27;1.27;;;;;;;;;;5068902;28;20727;-60
2023/06/15 00:32:28;;;;;;;1.17;1.17;;;;;;;;;;5061023;28;20200;-59
2023/06/15 00:34:55;;;;;;;1.40;1.40;;;;;;;;;;5067810;28;20215;-60
2023/06/15 00:37:22;;;;;;;0.95;0.95;;;;;;;;;;5049468;28;20211;-59
2023/06/15 00:39:49;;;;;;;1.20;1.20;;;;;;;;;;5049297;28;20224;-60
2023/06/15 00:42:18;;;;;;;3.53;1.30;;;;;;;;;;5048878;28;20223;-58
2023/06/15 00:44:45;;;;;;;1.33;1.33;;;;;;;;;;5048855;28;20215;-59
2023/06/15 00:47:12;;;;;;;1.20;1.20;;;;;;;;;;5064150;28;20272;-59
2023/06/15 00:49:39;;;;;;;1.30;1.30;;;;;;;;;;5050350;28;20207;-58
2023/06/15 00:52:06;;;;;;;1.17;1.17;;;;;;;;;;5048938;28;20675;-59
2023/06/15 00:54:35;;;;;;;1.38;1.38;;;;;;;;;;5057666;28;20199;-58
2023/06/15 00:57:02;;;;;;;4.88;1.27;;;;;;;;;;5064315;28;20216;-58
2023/06/15 00:59:30;;;;;;;1.40;1.40;;;;;;;;;;5065339;28;20227;-59
2023/06/15 01:01:58;;;;;;;2.45;1.30;;;;;;;;;;5066461;28;20219;-59
2023/06/15 01:04:25;;;;;;;1.35;1.35;;;;;;;;;;5059360;28;20207;-59
2023/06/15 01:06:56;;;;;;;1.45;1.45;;;;;;;;;;5044897;28;20222;-59
2023/06/15 01:09:24;;;;;;;1.40;1.40;;;;;;;;;;5046541;28;20269;-58
2023/06/15 01:11:52;;;;;;;1.02;1.00;;;;;;;;;;5048239;28;20266;-58
2023/06/15 01:14:20;;;;;;;5.97;1.45;;;;;;;;;;5048083;28;20200;-59
2023/06/15 01:16:52;;;;;;;1.83;1.73;;;;;;;;;;5050042;28;20218;-59
2023/06/15 01:19:29;;;;;;;1.40;1.40;;;;;;;;;;5048097;28;20601;-58
2023/06/15 01:21:58;;;;;;;1.30;1.30;;;;;;;;;;5048239;28;20238;-58
2023/06/15 01:24:26;;;;;;;1.30;1.30;;;;;;;;;;5048523;28;20207;-59
2023/06/15 01:26:57;;;;;;;1.50;1.50;;;;;;;;;;5049635;28;20208;-58
2023/06/15 01:29:26;;;;;;;1.15;1.05;;;;;;;;;;5067745;28;20198;-59
2023/06/15 01:31:56;;;;;;;1.80;1.70;;;;;;;;;;5058881;28;20293;-59
2023/06/15 01:34:23;;;;;;;1.25;1.25;;;;;;;;;;5067918;28;20215;-59
2023/06/15 01:36:50;;;;;;;1.50;1.40;;;;;;;;;;5053798;28;20559;-59
2023/06/15 01:39:18;;;;;;;1.45;1.35;;;;;;;;;;5047236;28;20234;-58
2023/06/15 01:41:45;;;;;;;1.42;1.40;;;;;;;;;;5048712;28;20208;-58
2023/06/15 01:44:14;;;;;;;3.67;1.35;;;;;;;;;;5049742;28;20211;-58
2023/06/15 01:46:41;;;;;;;1.30;1.30;;;;;;;;;;5055414;28;20669;-59
2023/06/15 01:49:08;;;;;;;1.10;1.10;;;;;;;;;;5048618;28;20203;-59
2023/06/15 01:51:36;;;;;;;1.75;1.45;;;;;;;;;;5048665;28;20211;-58
2023/06/15 01:54:03;;;;;;;1.27;1.27;;;;;;;;;;5051600;28;20207;-59
2023/06/15 01:56:31;;;;;;;1.33;1.33;;;;;;;;;;5066328;28;20218;-59
2023/06/15 01:58:58;;;;;;;0.95;0.95;;;;;;;;;;5070438;28;20235;-58
2023/06/15 02:01:26;;;;;;;1.10;1.10;;;;;;;;;;5070133;28;20264;-58
2023/06/15 02:03:54;;;;;;;1.27;1.27;;;;;;;;;;5051289;28;20314;-59
2023/06/15 02:06:21;;;;;;;2.53;1.65;;;;;;;;;;5051171;28;20221;-58
2023/06/15 02:08:48;;;;;;;1.15;1.15;;;;;;;;;;5051180;28;20289;-59
2023/06/15 02:11:18;;;;;;;1.42;1.33;;;;;;;;;;5050798;28;20203;-58
2023/06/15 02:13:45;;;;;;;0.90;0.90;;;;;;;;;;5051495;28;20357;-59
2023/06/15 02:16:12;;;;;;;1.10;1.10;;;;;;;;;;5051704;28;20221;-59
2023/06/15 02:18:45;;;;;;;1.35;1.35;;;;;;;;;;5070525;28;20657;-58
2023/06/15 02:21:12;;;;;;;1.20;1.20;;;;;;;;;;5052814;28;20235;-59
2023/06/15 02:23:39;;;;;;;1.52;1.52;;;;;;;;;;5052335;28;20242;-59
2023/06/15 02:26:06;;;;;;;1.58;1.58;;;;;;;;;;5062711;28;20717;-58
2023/06/15 02:28:33;;;;;;;1.38;1.38;;;;;;;;;;5059277;28;20225;-59
2023/06/15 02:31:00;;;;;;;1.27;1.27;;;;;;;;;;5054968;28;20200;-59
2023/06/15 02:33:27;;;;;;;1.05;1.05;;;;;;;;;;5071429;28;20213;-59
2023/06/15 02:35:55;;;;;;;1.67;1.58;;;;;;;;;;5071198;28;20669;-58
2023/06/15 02:38:22;;;;;;;1.42;1.33;;;;;;;;;;5054242;28;20207;-59
2023/06/15 02:40:51;;;;;;;1.40;1.35;;;;;;;;;;5064551;28;20254;-59
2023/06/15 02:43:18;;;;;;;1.30;1.30;;;;;;;;;;5071062;28;20278;-59
2023/06/15 02:45:45;;;;;;;2.03;1.42;;;;;;;;;;5070827;28;20294;-59
2023/06/15 02:48:12;;;;;;;1.23;1.23;;;;;;;;;;5062481;28;20242;-59
2023/06/15 02:50:39;;;;;;;1.23;1.23;;;;;;;;;;5069889;28;20206;-59
2023/06/15 02:53:08;;;;;;;1.70;1.60;;;;;;;;;;5066196;28;20199;-59
2023/06/15 02:55:37;;;;;;;2.83;1.55;;;;;;;;;;5063277;28;20238;-59
2023/06/15 02:58:05;;;;;;;1.75;1.55;;;;;;;;;;5062696;28;20203;-60
2023/06/15 03:00:32;;;;;;;1.38;1.38;;;;;;;;;;5050536;28;20228;-59
2023/06/15 03:03:00;;;;;;;1.02;1.02;;;;;;;;;;5050404;28;20243;-59
2023/06/15 03:05:27;;;;;;;2.47;1.45;;;;;;;;;;5050105;28;20211;-60
2023/06/15 03:07:54;;;;;;;1.27;1.27;;;;;;;;;;5050093;28;20725;-58
2023/06/15 03:10:22;;;;;;;1.27;1.20;;;;;;;;;;5067576;28;20207;-58
2023/06/15 03:12:49;;;;;;;1.45;1.38;;;;;;;;;;5059144;28;20203;-59
2023/06/15 03:15:16;;;;;;;1.00;1.00;;;;;;;;;;5050381;28;20659;-59
2023/06/15 03:17:43;;;;;;;1.35;1.35;;;;;;;;;;5069255;28;20211;-57
2023/06/15 03:20:11;;;;;;;1.45;1.38;;;;;;;;;;5057812;28;20234;-58
2023/06/15 03:22:38;;;;;;;1.50;1.48;;;;;;;;;;5050895;28;20210;-58
2023/06/15 03:25:05;;;;;;;1.38;1.20;;;;;;;;;;5067291;28;20207;-59
2023/06/15 03:27:34;;;;;;;1.52;1.52;;;;;;;;;;5069524;28;20210;-59
2023/06/15 03:30:01;;;;;;;1.27;1.27;;;;;;;;;;5067973;28;20569;-59
2023/06/15 03:32:29;;;;;;;1.75;1.48;;;;;;;;;;5051684;28;20208;-58
2023/06/15 03:34:57;;;;;;;2.22;1.27;;;;;;;;;;5049973;28;20303;-59
2023/06/15 03:37:24;;;;;;;1.60;1.60;;;;;;;;;;5049327;28;20207;-59
2023/06/15 03:39:51;;;;;;;1.10;1.10;;;;;;;;;;5049244;28;20243;-59
2023/06/15 03:42:18;;;;;;;1.20;1.20;;;;;;;;;;5050107;28;20261;-59
2023/06/15 03:44:47;;;;;;;1.05;1.05;;;;;;;;;;5049262;28;20219;-59
2023/06/15 03:47:14;;;;;;;1.20;1.20;;;;;;;;;;5050077;28;20222;-58
2023/06/15 03:49:41;;;;;;;1.67;1.58;;;;;;;;;;5057314;28;20200;-58
2023/06/15 03:52:08;;;;;;;1.48;1.48;;;;;;;;;;5050486;28;20509;-59
2023/06/15 03:54:36;;;;;;;1.58;1.58;;;;;;;;;;5058015;28;20206;-59
2023/06/15 03:57:03;;;;;;;1.50;1.40;;;;;;;;;;5067560;28;20203;-59
2023/06/15 03:59:30;;;;;;;1.40;1.40;;;;;;;;;;5058563;28;20302;-59
2023/06/15 04:01:58;;;;;;;1.50;1.40;;;;;;;;;;5056660;28;20210;-59
2023/06/15 04:04:25;;;;;;;1.30;1.30;;;;;;;;;;5048852;28;20211;-59
2023/06/15 04:06:53;;;;;;;1.48;1.48;;;;;;;;;;5048578;28;20216;-58
2023/06/15 04:09:20;;;;;;;1.40;1.40;;;;;;;;;;5048364;28;20281;-58
2023/06/15 04:11:47;;;;;;;1.40;1.40;;;;;;;;;;5053941;28;20252;-59
2023/06/15 04:14:15;;;;;;;1.42;1.40;;;;;;;;;;5067152;28;20214;-59
2023/06/15 04:16:42;;;;;;;1.40;1.40;;;;;;;;;;5057779;28;20235;-59
2023/06/15 04:19:10;;;;;;;1.52;1.52;;;;;;;;;;5066990;28;20214;-58
2023/06/15 04:21:37;;;;;;;1.52;1.50;;;;;;;;;;5050088;28;20751;-59
2023/06/15 04:24:05;;;;;;;1.13;1.13;;;;;;;;;;5059022;28;20295;-58
2023/06/15 04:26:33;;;;;;;1.80;1.70;;;;;;;;;;5049074;28;20222;-59
2023/06/15 04:29:00;;;;;;;2.05;1.42;;;;;;;;;;5049625;28;20292;-60
2023/06/15 04:31:30;;;;;;;3.90;1.27;;;;;;;;;;5047188;28;20204;-58
2023/06/15 04:33:58;;;;;;;0.95;0.95;;;;;;;;;;5047894;28;20207;-59
2023/06/15 04:36:27;;;;;;;1.40;1.40;;;;;;;;;;5049051;28;20318;-59
2023/06/15 04:38:57;;;;;;;1.15;1.15;;;;;;;;;;5045237;28;20212;-59
2023/06/15 04:41:27;;;;;;;2.60;1.40;;;;;;;;;;5056612;28;20241;-59
2023/06/15 04:43:55;;;;;;;1.38;1.38;;;;;;;;;;5060822;28;20280;-59
2023/06/15 04:46:23;;;;;;;1.42;1.42;;;;;;;;;;5063896;28;20210;-59
2023/06/15 04:48:50;;;;;;;1.20;1.20;;;;;;;;;;5068607;28;20250;-59
2023/06/15 04:51:18;;;;;;;1.67;1.67;;;;;;;;;;5067548;28;20286;-59
2023/06/15 04:53:47;;;;;;;1.65;1.65;;;;;;;;;;5050815;28;20227;-59
2023/06/15 04:56:14;;;;;;;2.22;1.52;;;;;;;;;;5057409;28;20230;-59
2023/06/15 04:58:41;;;;;;;1.63;1.52;;;;;;;;;;5066933;28;20246;-59
2023/06/15 05:01:08;;;;;;;1.73;1.67;;;;;;;;;;5054306;28;20227;-59
2023/06/15 05:03:35;;;;;;;1.27;1.27;;;;;;;;;;5061203;28;20242;-59
2023/06/15 05:06:02;;;;;;;1.65;1.55;;;;;;;;;;5057925;28;20211;-59
2023/06/15 05:08:32;;;;;;;1.60;1.50;;;;;;;;;;5048327;28;20216;-59
2023/06/15 05:11:01;;;;;;;1.50;1.50;;;;;;;;;;5051777;28;20231;-59
2023/06/15 05:13:28;;;;;;;1.73;1.63;;;;;;;;;;5056879;28;20212;-59
2023/06/15 05:15:55;;;;;;;1.50;1.50;;;;;;;;;;5048341;28;20305;-59
2023/06/15 05:18:22;;;;;;;1.48;1.48;;;;;;;;;;5065153;28;20673;-59
2023/06/15 05:20:50;;;;;;;1.30;1.30;;;;;;;;;;5056299;28;20235;-59
2023/06/15 05:23:18;;;;;;;1.58;1.58;;;;;;;;;;5053351;28;20570;-59
2023/06/15 05:25:45;;;;;;;1.33;1.33;;;;;;;;;;5060465;28;20204;-59
2023/06/15 05:28:14;;;;;;;1.48;1.45;;;;;;;;;;5064784;28;20230;-59
2023/06/15 05:30:41;;;;;;;1.70;1.60;;;;;;;;;;5051202;28;20211;-59
2023/06/15 05:33:13;;;;;;;1.42;1.42;;;;;;;;;;5052563;28;20578;-59
2023/06/15 05:35:40;;;;;;;1.42;1.42;;;;;;;;;;5049656;28;20212;-60
2023/06/15 05:38:07;;;;;;;1.50;1.40;;;;;;;;;;5051357;28;20261;-59
2023/06/15 05:40:34;;;;;;;1.65;1.65;;;;;;;;;;5064226;28;20234;-60
2023/06/15 05:43:01;;;;;;;1.50;1.50;;;;;;;;;;5051001;28;20566;-60
2023/06/15 05:45:30;;;;;;;1.85;1.52;;;;;;;;;;5045887;28;20602;-58
2023/06/15 05:47:57;;;;;;;2.67;1.90;;;;;;;;;;5049541;28;20234;-58
2023/06/15 05:50:24;;;;;;;3.33;1.80;;;;;;;;;;5050138;28;20208;-59
2023/06/15 05:52:51;;;;;;;1.80;1.70;;;;;;;;;;5052963;28;20689;-58
2023/06/15 05:55:18;;;;;;;1.67;1.45;;;;;;;;;;5048543;28;20207;-59
2023/06/15 05:57:45;;;;;;;3.22;1.70;;;;;;;;;;5047474;28;20211;-58
2023/06/15 06:00:13;;;;;;;1.60;1.60;;;;;;;;;;5047490;28;20717;-58
2023/06/15 06:02:42;;;;;;;1.50;1.50;;;;;;;;;;5047206;28;20265;-60
2023/06/15 06:05:09;;;;;;;1.30;1.30;;;;;;;;;;5048361;28;20249;-58
2023/06/15 06:07:36;;;;;;;1.27;1.13;;;;;;;;;;5047645;28;20215;-58
2023/06/15 06:10:03;;;;;;;1.13;1.13;;;;;;;;;;5057439;28;20202;-58
2023/06/15 06:12:30;;;;;;;1.50;1.50;;;;;;;;;;5067297;28;20216;-58
2023/06/15 06:14:57;;;;;;;1.40;1.40;;;;;;;;;;5067370;28;20707;-58
2023/06/15 06:17:24;;;;;;;1.63;1.52;;;;;;;;;;5067215;28;20210;-60
2023/06/15 06:19:52;;;;;;;1.40;1.40;;;;;;;;;;5065487;28;20207;-58
2023/06/15 06:22:20;;;;;;;2.45;1.48;;;;;;;;;;5064335;28;20308;-59
2023/06/15 06:24:47;;;;;;;0.82;0.82;;;;;;;;;;5064087;28;20306;-57
2023/06/15 06:27:14;;;;;;;1.50;1.40;;;;;;;;;;5067485;28;20207;-58
2023/06/15 06:29:41;;;;;;;1.48;1.48;;;;;;;;;;5067584;28;20380;-58
2023/06/15 06:32:08;;;;;;;1.50;1.50;;;;;;;;;;5067660;28;20678;-58
2023/06/15 06:34:35;;;;;;;1.50;1.50;;;;;;;;;;5065757;28;20211;-58
2023/06/15 06:37:04;;;;;;;2.58;1.52;;;;;;;;;;5067248;28;20214;-57
2023/06/15 06:39:31;;;;;;;1.50;1.50;;;;;;;;;;5056736;28;20214;-58
2023/06/15 06:41:58;;;;;;;1.77;1.77;;;;;;;;;;5064055;28;20223;-57
2023/06/15 06:44:25;;;;;;;1.40;1.40;;;;;;;;;;5069577;28;20211;-58
2023/06/15 06:46:52;;;;;;;1.45;1.45;;;;;;;;;;5070869;28;20214;-57
2023/06/15 06:49:20;;;;;;;1.30;1.30;;;;;;;;;;5061886;28;20209;-59
2023/06/15 06:51:47;;;;;;;1.38;1.38;;;;;;;;;;5068145;28;20203;-59
2023/06/15 06:54:15;;;;;;;1.45;1.45;;;;;;;;;;5056180;28;20215;-60
2023/06/15 06:56:42;;;;;;;1.67;1.67;;;;;;;;;;5048196;28;20593;-59
2023/06/15 06:59:12;;;;;;;2.00;1.70;;;;;;;;;;5050366;28;20211;-59
2023/06/15 07:01:39;;;;;;;2.97;1.80;;;;;;;;;;5050221;28;20281;-60
2023/06/15 07:04:06;;;;;;;1.42;1.42;;;;;;;;;;5050100;28;20255;-59
2023/06/15 07:06:34;;;;;;;1.50;1.50;;;;;;;;;;5050453;28;20207;-59
2023/06/15 07:09:01;;;;;;;1.45;1.45;;;;;;;;;;5050159;28;20207;-59
2023/06/15 07:11:29;;;;;;;1.25;1.25;;;;;;;;;;5050117;28;20216;-59
2023/06/15 07:13:56;;;;;;;1.20;1.20;;;;;;;;;;5050391;28;20218;-59
2023/06/15 07:16:23;;;;;;;2.00;1.90;;;;;;;;;;5049885;28;20215;-59
2023/06/15 07:18:50;;;;;;;2.03;1.67;;;;;;;;;;5057886;28;20210;-60
2023/06/15 07:21:17;;;;;;;1.77;1.77;;;;;;;;;;5060551;28;20326;-58
2023/06/15 07:23:44;;;;;;;2.60;1.60;;;;;;;;;;5058628;28;20278;-58
2023/06/15 07:26:11;;;;;;;1.20;1.20;;;;;;;;;;5059026;28;20230;-58
2023/06/15 07:28:40;;;;;;;1.50;1.50;;;;;;;;;;5060634;28;20203;-60
2023/06/15 07:31:07;;;;;;;1.50;1.50;;;;;;;;;;5059447;28;20309;-60
2023/06/15 07:33:34;;;;;;;1.30;1.30;;;;;;;;;;5058833;28;20669;-60
2023/06/15 07:36:01;;;;;;;1.42;1.35;;;;;;;;;;5060538;28;20218;-59
2023/06/15 07:38:30;;;;;;;1.60;1.60;;;;;;;;;;5059502;28;20212;-58
2023/06/15 07:40:57;;;;;;;1.60;1.60;;;;;;;;;;5058274;28;20550;-58
2023/06/15 07:43:24;;;;;;;1.35;1.35;;;;;;;;;;5059999;28;20215;-58
2023/06/15 07:45:53;;;;;;;1.30;1.30;;;;;;;;;;5060322;28;20211;-58
2023/06/15 07:48:20;;;;;;;1.85;1.58;;;;;;;;;;5054580;28;20211;-58
2023/06/15 07:50:47;;;;;;;1.55;1.55;;;;;;;;;;5061712;28;20214;-58
2023/06/15 07:53:14;;;;;;;1.65;1.65;;;;;;;;;;5069365;28;20222;-58
2023/06/15 07:55:41;;;;;;;1.60;1.60;;;;;;;;;;5067888;28;20211;-59
2023/06/15 07:58:08;;;;;;;1.45;1.45;;;;;;;;;;5069238;28;20211;-59
2023/06/15 08:00:35;;;;;;;1.30;1.30;;;;;;;;;;5069182;28;20236;-58
2023/06/15 08:03:04;;;;;;;1.30;1.30;;;;;;;;;;5069154;28;20729;-59
2023/06/15 08:05:31;;;;;;;3.33;1.70;;;;;;;;;;5069070;28;20203;-58
2023/06/15 08:07:58;;;;;;;1.58;1.48;;;;;;;;;;5069236;28;20622;-60
2023/06/15 08:10:25;;;;;;;2.25;1.38;;;;;;;;;;5069213;28;20218;-59
2023/06/15 08:12:52;;;;;;;1.15;1.15;;;;;;;;;;5067502;28;20214;-58
2023/06/15 08:15:19;;;;;;;1.60;1.60;;;;;;;;;;5049780;28;20206;-59
2023/06/15 08:17:46;;;;;;;1.90;1.80;;;;;;;;;;5049156;28;21215;-57
2023/06/15 08:20:15;;;;;;;2.08;1.63;;;;;;;;;;5058236;28;20264;-60
2023/06/15 08:22:42;;;;;;;1.52;1.50;;;;;;;;;;5066938;28;20229;-60
2023/06/15 08:25:12;;;;;;;1.50;1.50;;;;;;;;;;5068654;28;20199;-60
2023/06/15 08:27:39;;;;;;;1.33;1.33;;;;;;;;;;5068793;28;20272;-61
2023/06/15 08:30:06;;;;;;;1.48;1.48;;;;;;;;;;5068525;28;20568;-61
2023/06/15 08:32:33;;;;;;;1.27;1.27;;;;;;;;;;5068325;28;20226;-60
2023/06/15 08:35:00;;;;;;;2.78;1.60;;;;;;;;;;5068459;28;20234;-59
2023/06/15 08:37:30;;;;;;;1.63;1.25;;;;;;;;;;5049810;28;20215;-58
2023/06/15 08:39:57;;;;;;;1.65;1.55;;;;;;;;;;5049294;28;20215;-58
2023/06/15 08:42:25;;;;;;;2.95;1.50;;;;;;;;;;5048159;28;20684;-59
2023/06/15 08:44:55;;;;;;;1.60;1.60;;;;;;;;;;5048407;28;20215;-60
2023/06/15 08:47:22;;;;;;;1.58;1.58;;;;;;;;;;5048262;28;20214;-60
2023/06/15 08:49:49;;;;;;;1.70;1.65;;;;;;;;;;5052257;28;20591;-60
2023/06/15 08:52:20;;;;;;;1.10;1.10;;;;;;;;;;5068160;28;20390;-60
2023/06/15 08:54:51;;;;;;;1.60;1.50;;;;;;;;;;5066417;28;20294;-60
2023/06/15 08:57:18;;;;;;;1.63;1.52;;;;;;;;;;5049615;28;20211;-60
2023/06/15 08:59:45;;;;;;;3.00;1.48;;;;;;;;;;5043137;28;20223;-60
2023/06/15 09:02:14;;;;;;;1.33;1.33;;;;;;;;;;5046144;28;20231;-61
2023/06/15 09:04:41;;;;;;;2.75;1.70;;;;;;;;;;5047588;28;20851;-60
2023/06/15 09:07:09;;;;;;;1.50;1.50;;;;;;;;;;5046727;28;20208;-61
2023/06/15 09:09:36;;;;;;;1.42;1.42;;;;;;;;;;5056684;28;20889;-61
2023/06/15 09:12:07;;;;;;;1.73;1.63;;;;;;;;;;5046980;28;20266;-61
2023/06/15 09:14:40;;;;;;;1.27;1.27;;;;;;;;;;5053778;28;20703;-61
2023/06/15 09:17:13;;;;;;;1.52;1.48;;;;;;;;;;5067790;28;20288;-60
2023/06/15 09:19:40;;;;;;;1.40;1.40;;;;;;;;;;5067337;28;20253;-60
2023/06/15 09:22:08;;;;;;;1.58;1.50;;;;;;;;;;5067150;28;20235;-60
2023/06/15 09:24:39;;;;;;;1.48;1.40;;;;;;;;;;5067564;28;20310;-61
2023/06/15 09:27:17;;;;;;;1.25;1.25;;;;;;;;;;5067472;28;20214;-60
2023/06/15 09:30:02;;;;;;;1.30;1.30;;;;;;;;;;5067650;28;20277;-61
2023/06/15 09:32:30;;;;;;;1.50;1.50;;;;;;;;;;5067467;28;20210;-61
2023/06/15 09:34:58;;;;;;;2.97;1.88;;;;;;;;;;5067309;28;20779;-61
2023/06/15 09:37:27;;;;;;;1.58;1.45;;;;;;;;;;5067479;28;20934;-61
2023/06/15 09:39:54;;;;;;;1.85;1.83;;;;;;;;;;5067569;28;20215;-61
2023/06/15 09:42:27;;;;;;;1.95;1.77;;;;;;;;;;5066689;28;20234;-61
2023/06/15 09:44:54;;;;;;;1.95;1.92;;;;;;;;;;5067302;28;20214;-61
2023/06/15 09:47:21;;;;;;;1.70;1.60;;;;;;;;;;5066808;28;20248;-61
2023/06/15 09:49:49;;;;;;;1.25;1.25;;;;;;;;;;5067207;28;20215;-61
2023/06/15 09:52:17;;;;;;;1.70;1.70;;;;;;;;;;5066862;28;20674;-62
2023/06/15 09:54:44;;;;;;;1.50;1.50;;;;;;;;;;5067172;28;20215;-61
2023/06/15 09:57:12;;;;;;;2.95;2.05;;;;;;;;;;5067097;28;20211;-61
2023/06/15 09:59:40;;;;;;;2.00;1.90;;;;;;;;;;5067200;28;20230;-61
2023/06/15 10:02:11;;;;;;;1.65;1.65;;;;;;;;;;5066582;28;20291;-61
2023/06/15 10:04:40;;;;;;;1.80;1.70;;;;;;;;;;5066911;28;20272;-60
2023/06/15 10:07:08;;;;;;;1.70;1.70;;;;;;;;;;5066922;28;20323;-61
2023/06/15 10:09:39;;;;;;;1.58;1.58;;;;;;;;;;5066997;28;20253;-61
2023/06/15 10:12:10;;;;;;;1.80;1.75;;;;;;;;;;5066691;28;20213;-61
2023/06/15 10:14:40;;;;;;;1.95;1.88;;;;;;;;;;5066979;28;20238;-61
2023/06/15 10:17:10;;;;;;;1.60;1.60;;;;;;;;;;5067006;28;20214;-61
2023/06/15 10:19:42;;;;;;;4.93;1.58;;;;;;;;;;5069644;28;20210;-61
2023/06/15 10:22:13;;;;;;;1.73;1.73;;;;;;;;;;5070679;28;20237;-60
2023/06/15 10:24:40;;;;;;;1.70;1.70;;;;;;;;;;5070971;28;20210;-62
2023/06/15 10:27:08;;;;;;;2.53;1.73;;;;;;;;;;5070935;28;20226;-60
2023/06/15 10:29:37;;;;;;;1.70;1.58;;;;;;;;;;5070439;28;20222;-61
2023/06/15 10:32:10;;;;;;;1.70;1.70;;;;;;;;;;5070710;28;20217;-61
2023/06/15 10:34:41;;;;;;;1.80;1.80;;;;;;;;;;5067219;28;20207;-60
2023/06/15 10:37:11;;;;;;;1.83;1.73;;;;;;;;;;5054809;28;20208;-60
2023/06/15 10:39:41;;;;;;;2.05;1.95;;;;;;;;;;5064122;28;20206;-61
2023/06/15 10:42:09;;;;;;;1.75;1.75;;;;;;;;;;5069815;28;20242;-62
2023/06/15 10:44:36;;;;;;;2.30;1.95;;;;;;;;;;5067145;28;20589;-60
2023/06/15 10:47:06;;;;;;;1.40;1.40;;;;;;;;;;5051284;28;20569;-60
2023/06/15 10:49:33;;;;;;;1.50;1.50;;;;;;;;;;5056788;28;20294;-61
2023/06/15 10:52:04;;;;;;;1.70;1.70;;;;;;;;;;5070203;28;20524;-61
2023/06/15 10:54:31;;;;;;;1.90;1.80;;;;;;;;;;5056755;28;20215;-61
2023/06/15 10:56:58;;;;;;;1.55;1.55;;;;;;;;;;5050408;28;20256;-61
2023/06/15 10:59:38;;;;;;;1.52;1.52;;;;;;;;;;5050631;28;20265;-62
2023/06/15 11:02:20;;;;;;;2.30;2.10;;;;;;;;;;5050053;28;20308;-59
2023/06/15 11:04:52;;;;;;;1.48;1.48;;;;;;;;;;5050214;28;20230;-60
2023/06/15 11:07:27;;;;;;;2.38;1.65;;;;;;;;;;5068957;28;20253;-59
2023/06/15 11:09:57;;;;;;;2.67;1.40;;;;;;;;;;5051132;28;20273;-61
2023/06/15 11:12:33;;;;;;;2.72;1.67;;;;;;;;;;5059484;28;20838;-61
2023/06/15 11:15:02;;;;;;;1.50;1.45;;;;;;;;;;5061588;28;20358;-60
2023/06/15 11:17:29;;;;;;;1.75;1.75;;;;;;;;;;5053090;28;20578;-59
2023/06/15 11:19:57;;;;;;;1.55;1.55;;;;;;;;;;5057834;28;20199;-59
2023/06/15 11:22:26;;;;;;;1.45;1.45;;;;;;;;;;5068895;28;20477;-58
2023/06/15 11:24:54;;;;;;;5.00;1.70;;;;;;;;;;5064308;28;20643;-59
2023/06/15 11:27:22;;;;;;;1.77;1.70;;;;;;;;;;5060913;28;20223;-60
2023/06/15 11:29:56;;;;;;;1.60;1.50;;;;;;;;;;5053814;28;20204;-61
2023/06/15 11:32:26;;;;;;;1.42;1.42;;;;;;;;;;5054304;28;20212;-60
2023/06/15 11:34:57;;;;;;;1.58;1.58;;;;;;;;;;5057115;28;20235;-60
2023/06/15 11:37:27;;;;;;;1.65;1.50;;;;;;;;;;5049170;28;20629;-58
2023/06/15 11:39:54;;;;;;;1.40;1.40;;;;;;;;;;5049129;28;20317;-59
2023/06/15 11:42:22;;;;;;;1.35;1.35;;;;;;;;;;5051615;28;20239;-58
2023/06/15 11:44:49;;;;;;;1.50;1.50;;;;;;;;;;5067567;28;20205;-58
2023/06/15 11:47:17;;;;;;;1.45;1.45;;;;;;;;;;5052124;28;20557;-59
2023/06/15 11:49:46;;;;;;;1.60;1.50;;;;;;;;;;5062706;28;20245;-59
2023/06/15 11:52:13;;;;;;;1.42;1.42;;;;;;;;;;5048616;28;20294;-58
2023/06/15 11:54:42;;;;;;;1.10;1.10;;;;;;;;;;5059875;28;20208;-58
2023/06/15 11:57:11;;;;;;;1.80;1.70;;;;;;;;;;5065286;28;20666;-59
2023/06/15 11:59:40;;;;;;;1.70;1.70;;;;;;;;;;5068246;28;20258;-59
2023/06/15 12:02:07;;;;;;;1.70;1.60;;;;;;;;;;5068944;28;20246;-59
2023/06/15 12:04:34;;;;;;;2.67;1.70;;;;;;;;;;5069649;28;20215;-59
2023/06/15 12:07:04;;;;;;;1.58;1.58;;;;;;;;;;5065841;28;20206;-60
2023/06/15 12:09:31;;;;;;;2.88;1.27;;;;;;;;;;5069530;28;20303;-60
2023/06/15 12:12:01;;;;;;;1.40;1.30;;;;;;;;;;5054560;28;20200;-60
2023/06/15 12:14:28;;;;;;;1.10;1.10;;;;;;;;;;5066895;28;20217;-60
2023/06/15 12:16:56;;;;;;;1.55;1.55;;;;;;;;;;5065586;28;20264;-60
2023/06/15 12:19:23;;;;;;;1.45;1.45;;;;;;;;;;5069194;28;20230;-60
2023/06/15 12:21:50;;;;;;;1.40;1.40;;;;;;;;;;5052987;28;20243;-60
2023/06/15 12:24:18;;;;;;;1.60;1.48;;;;;;;;;;5060994;28;20238;-59
2023/06/15 12:26:50;;;;;;;2.08;1.80;;;;;;;;;;5056475;28;20207;-58
2023/06/15 12:29:19;;;;;;;2.80;1.55;;;;;;;;;;5053918;28;20208;-58
2023/06/15 12:31:48;;;;;;;1.30;1.30;;;;;;;;;;5048649;28;20322;-60
2023/06/15 12:34:15;;;;;;;3.10;1.50;;;;;;;;;;5061285;28;20248;-59
2023/06/15 12:36:42;;;;;;;1.50;1.50;;;;;;;;;;5057443;28;20233;-59
2023/06/15 12:39:11;;;;;;;1.42;1.42;;;;;;;;;;5057030;28;20211;-59
2023/06/15 12:41:42;;;;;;;2.22;1.30;;;;;;;;;;5066942;28;20207;-59
2023/06/15 12:44:09;;;;;;;1.40;1.30;;;;;;;;;;5052162;28;20316;-62
2023/06/15 12:46:39;;;;;;;1.52;1.40;;;;;;;;;;5049019;28;20210;-61
2023/06/15 12:49:06;;;;;;;3.03;1.42;;;;;;;;;;5063563;28;20207;-62
2023/06/15 12:51:33;;;;;;;1.27;1.27;;;;;;;;;;5054875;28;20211;-62
2023/06/15 12:54:01;;;;;;;1.60;1.50;;;;;;;;;;5048805;28;20589;-62
2023/06/15 12:56:29;;;;;;;1.65;1.55;;;;;;;;;;5055888;28;20245;-63
2023/06/15 12:58:56;;;;;;;1.27;1.27;;;;;;;;;;5054093;28;20672;-62
2023/06/15 13:01:23;;;;;;;1.27;1.27;;;;;;;;;;5066521;28;20678;-62
2023/06/15 13:03:51;;;;;;;1.27;1.27;;;;;;;;;;5056311;28;20235;-62
2023/06/15 13:06:19;;;;;;;0.93;0.93;;;;;;;;;;5055847;28;20666;-64
2023/06/15 13:08:46;;;;;;;1.30;1.30;;;;;;;;;;5065167;28;20209;-63
2023/06/15 13:11:13;;;;;;;1.60;1.52;;;;;;;;;;5067476;28;20230;-64
2023/06/15 13:13:40;;;;;;;1.63;1.63;;;;;;;;;;5059793;28;20196;-64
2023/06/15 13:16:07;;;;;;;1.73;1.63;;;;;;;;;;5066865;28;20214;-64
2023/06/15 13:18:34;;;;;;;1.50;1.50;;;;;;;;;;5067184;28;20633;-64
2023/06/15 13:21:03;;;;;;;1.30;1.30;;;;;;;;;;5053161;28;20231;-64
2023/06/15 13:23:31;;;;;;;1.48;1.48;;;;;;;;;;5052214;28;20246;-64
2023/06/15 13:25:58;;;;;;;1.05;1.05;;;;;;;;;;5057325;28;20626;-71
2023/06/15 13:28:25;;;;;;;1.52;1.52;;;;;;;;;;5049689;28;20685;-62
2023/06/15 13:30:52;;;;;;;1.30;1.30;;;;;;;;;;5061557;28;20211;-64
2023/06/15 13:33:19;;;;;;;1.27;1.27;;;;;;;;;;5061765;28;20234;-64
2023/06/15 13:35:47;;;;;;;1.20;1.20;;;;;;;;;;5048898;28;20214;-64
2023/06/15 13:38:15;;;;;;;1.38;1.38;;;;;;;;;;5061431;28;20203;-64
2023/06/15 13:40:42;;;;;;;1.35;1.35;;;;;;;;;;5050945;28;20211;-64
2023/06/15 13:43:09;;;;;;;1.63;1.63;;;;;;;;;;5048364;28;20722;-64
2023/06/15 13:45:36;;;;;;;1.48;1.48;;;;;;;;;;5053825;28;20218;-64
2023/06/15 13:48:03;;;;;;;1.30;1.20;;;;;;;;;;5054482;28;20203;-64
2023/06/15 13:50:31;;;;;;;1.70;1.60;;;;;;;;;;5057256;28;20229;-64
2023/06/15 13:52:59;;;;;;;1.40;1.40;;;;;;;;;;5057784;28;20207;-64
2023/06/15 13:55:27;;;;;;;1.13;1.13;;;;;;;;;;5054835;28;20341;-64
2023/06/15 13:57:55;;;;;;;1.30;1.30;;;;;;;;;;5064812;28;20222;-63
2023/06/15 14:00:23;;;;;;;1.67;1.60;;;;;;;;;;5065007;28;20219;-64
2023/06/15 14:02:50;;;;;;;1.45;1.45;;;;;;;;;;5064170;28;20251;-64
2023/06/15 14:05:17;;;;;;;1.58;1.55;;;;;;;;;;5059666;28;20584;-64
2023/06/15 14:07:44;;;;;;;1.60;1.50;;;;;;;;;;5064236;28;20729;-63
2023/06/15 14:10:12;;;;;;;1.70;1.70;;;;;;;;;;5051661;28;20209;-63
2023/06/15 14:12:40;;;;;;;1.20;1.20;;;;;;;;;;5060984;28;20587;-64
2023/06/15 14:15:09;;;;;;;1.48;1.48;;;;;;;;;;5048633;28;20307;-64
2023/06/15 14:17:36;;;;;;;2.90;1.38;;;;;;;;;;5057766;28;20285;-64
2023/06/15 14:20:03;;;;;;;1.23;1.23;;;;;;;;;;5058476;28;20213;-64
2023/06/15 14:22:30;;;;;;;4.22;1.77;;;;;;;;;;5066528;28;20260;-64
2023/06/15 14:24:57;;;;;;;1.15;1.15;;;;;;;;;;5060290;28;20241;-64
2023/06/15 14:27:24;;;;;;;1.60;1.60;;;;;;;;;;5051506;28;20207;-64
2023/06/15 14:29:53;;;;;;;1.45;1.40;;;;;;;;;;5049116;28;20207;-64
2023/06/15 14:32:20;;;;;;;3.08;1.60;;;;;;;;;;5051369;28;20220;-68
2023/06/15 14:34:47;;;;;;;1.80;1.70;;;;;;;;;;5048747;28;20251;-64
2023/06/15 14:37:14;;;;;;;2.35;1.23;;;;;;;;;;5057290;28;20549;-64
2023/06/15 14:39:41;;;;;;;1.88;1.80;;;;;;;;;;5063246;28;20976;-63
2023/06/15 14:42:09;;;;;;;2.03;1.85;;;;;;;;;;5058108;28;20261;-62
2023/06/15 14:44:36;;;;;;;1.45;1.45;;;;;;;;;;5056735;28;20712;-65
2023/06/15 14:47:04;;;;;;;1.13;1.13;;;;;;;;;;5050327;28;20207;-65